sensor_id;sensor_type;location;lat;lon;timestamp;temperature;humidity
16674;DHT22;8450;52.654;10.326;2022-07-29T04:47:45;14.10;99.90
16674;DHT22;8450;52.654;10.326;2022-07-29T04:50:10;14.10;99.90
16674;DHT22;8450;52.654;10.326;2022-07-29T04:52:36;14.10;99.90
16674;DHT22;8450;52.654;10.326;2022-07-29T04:55:03;14.20;99.90
16674;DHT22;8450;52.654;10.326;2022-07-29T04:57:28;14.20;99.90
16674;DHT22;8450;52.654;10.326;2022-07-29T04:59:54;14.20;99.90
16674;DHT22;8450;52.654;10.326;2022-07-29T05:02:19;14.20;99.90
16674;DHT22;8450;52.654;10.326;2022-07-29T05:04:45;14.30;99.90
16674;DHT22;8450;52.654;10.326;2022-07-29T05:07:11;14.30;99.90
16674;DHT22;8450;52.654;10.326;2022-07-29T05:09:36;14.30;99.90
16674;DHT22;8450;52.654;10.326;2022-07-29T05:12:02;14.30;99.90
16674;DHT22;8450;52.654;10.326;2022-07-29T05:14:27;14.40;99.90
16674;DHT22;8450;52.654;10.326;2022-07-29T05:16:53;14.40;99.90
16674;DHT22;8450;52.654;10.326;2022-07-29T05:19:22;14.50;99.90
16674;DHT22;8450;52.654;10.326;2022-07-29T05:21:47;14.60;99.90
16674;DHT22;8450;52.654;10.326;2022-07-29T05:24:13;14.60;99.90
16674;DHT22;8450;52.654;10.326;2022-07-29T05:26:39;14.60;99.90
16674;DHT22;8450;52.654;10.326;2022-07-29T05:29:05;14.60;99.90
16674;DHT22;8450;52.654;10.326;2022-07-29T05:31:30;14.70;99.90
16674;DHT22;8450;52.654;10.326;2022-07-29T05:33:56;14.70;99.90
16674;DHT22;8450;52.654;10.326;2022-07-29T05:36:21;14.70;99.90
16674;DHT22;8450;52.654;10.326;2022-07-29T05:38:47;14.70;99.90
16674;DHT22;8450;52.654;10.326;2022-07-29T05:41:12;14.70;99.90
16674;DHT22;8450;52.654;10.326;2022-07-29T05:43:38;14.70;99.90
16674;DHT22;8450;52.654;10.326;2022-07-29T05:46:04;14.80;99.90
16674;DHT22;8450;52.654;10.326;2022-07-29T05:48:29;14.80;99.90
16674;DHT22;8450;52.654;10.326;2022-07-29T05:50:55;14.80;99.90
16674;DHT22;8450;52.654;10.326;2022-07-29T05:53:20;14.90;99.90
16674;DHT22;8450;52.654;10.326;2022-07-29T05:55:49;14.90;99.90
16674;DHT22;8450;52.654;10.326;2022-07-29T05:58:16;15.00;99.90
16674;DHT22;8450;52.654;10.326;2022-07-29T06:00:41;15.00;99.90
16674;DHT22;8450;52.654;10.326;2022-07-29T06:03:07;15.10;99.90
16674;DHT22;8450;52.654;10.326;2022-07-29T06:05:32;15.10;99.90
16674;DHT22;8450;52.654;10.326;2022-07-29T06:07:58;15.20;99.90
16674;DHT22;8450;52.654;10.326;2022-07-29T06:10:23;15.20;99.90
16674;DHT22;8450;52.654;10.326;2022-07-29T06:12:50;15.20;99.90
16674;DHT22;8450;52.654;10.326;2022-07-29T06:15:15;15.30;99.90
16674;DHT22;8450;52.654;10.326;2022-07-29T06:17:41;15.40;99.90
16674;DHT22;8450;52.654;10.326;2022-07-29T06:20:07;15.40;99.90
16674;DHT22;8450;52.654;10.326;2022-07-29T06:22:32;15.50;99.90
16674;DHT22;8450;52.654;10.326;2022-07-29T06:24:58;15.60;99.90
16674;DHT22;8450;52.654;10.326;2022-07-29T06:27:23;15.70;99.90
16674;DHT22;8450;52.654;10.326;2022-07-29T06:29:49;15.80;99.90
16674;DHT22;8450;52.654;10.326;2022-07-29T06:32:14;15.90;99.90
16674;DHT22;8450;52.654;10.326;2022-07-29T06:34:40;16.00;99.90
16674;DHT22;8450;52.654;10.326;2022-07-29T06:37:09;16.10;99.90
16674;DHT22;8450;52.654;10.326;2022-07-29T06:39:35;16.20;99.90
16674;DHT22;8450;52.654;10.326;2022-07-29T06:42:03;16.40;99.90
16674;DHT22;8450;52.654;10.326;2022-07-29T06:44:30;16.50;99.90
16674;DHT22;8450;52.654;10.326;2022-07-29T06:46:56;16.60;99.90
16674;DHT22;8450;52.654;10.326;2022-07-29T06:49:22;16.70;99.90
16674;DHT22;8450;52.654;10.326;2022-07-29T06:51:49;16.80;99.90
16674;DHT22;8450;52.654;10.326;2022-07-29T06:54:15;17.00;99.90
16674;DHT22;8450;52.654;10.326;2022-07-29T06:56:40;17.20;99.90
16674;DHT22;8450;52.654;10.326;2022-07-29T06:59:08;17.40;99.90
16674;DHT22;8450;52.654;10.326;2022-07-29T07:01:36;17.50;99.90
16674;DHT22;8450;52.654;10.326;2022-07-29T07:04:02;17.80;99.90
16674;DHT22;8450;52.654;10.326;2022-07-29T07:06:27;18.10;99.90
16674;DHT22;8450;52.654;10.326;2022-07-29T07:08:53;18.20;99.90
16674;DHT22;8450;52.654;10.326;2022-07-29T07:11:19;18.30;99.90
16674;DHT22;8450;52.654;10.326;2022-07-29T07:13:44;18.10;99.90
16674;DHT22;8450;52.654;10.326;2022-07-29T07:16:10;18.20;99.90
16674;DHT22;8450;52.654;10.326;2022-07-29T07:18:35;18.30;99.90
16674;DHT22;8450;52.654;10.326;2022-07-29T07:21:01;18.40;99.90
16674;DHT22;8450;52.654;10.326;2022-07-29T07:23:26;18.50;99.90
16674;DHT22;8450;52.654;10.326;2022-07-29T07:25:52;18.60;99.90
16674;DHT22;8450;52.654;10.326;2022-07-29T07:28:18;18.90;99.90
16674;DHT22;8450;52.654;10.326;2022-07-29T07:30:44;19.00;99.90
16674;DHT22;8450;52.654;10.326;2022-07-29T07:33:10;19.00;99.90
16674;DHT22;8450;52.654;10.326;2022-07-29T07:35:35;19.20;99.90
16674;DHT22;8450;52.654;10.326;2022-07-29T07:38:01;19.40;99.90
16674;DHT22;8450;52.654;10.326;2022-07-29T07:40:27;19.60;99.90
16674;DHT22;8450;52.654;10.326;2022-07-29T07:42:52;19.70;99.90
16674;DHT22;8450;52.654;10.326;2022-07-29T07:45:18;19.70;99.90
16674;DHT22;8450;52.654;10.326;2022-07-29T07:47:44;20.10;99.90
16674;DHT22;8450;52.654;10.326;2022-07-29T07:50:11;20.40;99.90
16674;DHT22;8450;52.654;10.326;2022-07-29T07:52:51;20.50;99.90
16674;DHT22;8450;52.654;10.326;2022-07-29T07:55:17;20.70;99.90
16674;DHT22;8450;52.654;10.326;2022-07-29T07:57:43;20.60;99.90
16674;DHT22;8450;52.654;10.326;2022-07-29T08:00:10;20.70;99.90
16674;DHT22;8450;52.654;10.326;2022-07-29T08:02:39;21.20;99.90
16674;DHT22;8450;52.654;10.326;2022-07-29T08:05:06;21.40;99.90
16674;DHT22;8450;52.654;10.326;2022-07-29T08:07:32;21.60;99.90
16674;DHT22;8450;52.654;10.326;2022-07-29T08:09:58;21.90;99.90
16674;DHT22;8450;52.654;10.326;2022-07-29T08:12:24;22.20;99.90
16674;DHT22;8450;52.654;10.326;2022-07-29T08:14:49;22.40;99.90
16674;DHT22;8450;52.654;10.326;2022-07-29T08:17:15;22.50;99.90
16674;DHT22;8450;52.654;10.326;2022-07-29T08:19:40;22.30;99.90
16674;DHT22;8450;52.654;10.326;2022-07-29T08:22:06;22.20;99.90
16674;DHT22;8450;52.654;10.326;2022-07-29T08:24:31;22.40;99.90
16674;DHT22;8450;52.654;10.326;2022-07-29T08:27:12;22.30;99.90
16674;DHT22;8450;52.654;10.326;2022-07-29T08:29:38;22.50;99.90
16674;DHT22;8450;52.654;10.326;2022-07-29T08:32:05;22.40;99.90
16674;DHT22;8450;52.654;10.326;2022-07-29T08:34:31;22.70;99.90
16674;DHT22;8450;52.654;10.326;2022-07-29T08:36:57;23.00;99.90
16674;DHT22;8450;52.654;10.326;2022-07-29T08:39:23;23.40;99.90
16674;DHT22;8450;52.654;10.326;2022-07-29T08:41:49;23.50;99.90
16674;DHT22;8450;52.654;10.326;2022-07-29T08:44:17;23.90;99.90
16674;DHT22;8450;52.654;10.326;2022-07-29T08:46:43;24.00;99.90
16674;DHT22;8450;52.654;10.326;2022-07-29T08:49:09;24.10;99.90
16674;DHT22;8450;52.654;10.326;2022-07-29T08:51:36;24.10;99.90
16674;DHT22;8450;52.654;10.326;2022-07-29T08:54:04;24.60;99.90
16674;DHT22;8450;52.654;10.326;2022-07-29T08:56:30;24.90;99.90
16674;DHT22;8450;52.654;10.326;2022-07-29T08:58:58;25.20;99.90
16674;DHT22;8450;52.654;10.326;2022-07-29T09:01:27;24.90;99.90
16674;DHT22;8450;52.654;10.326;2022-07-29T09:03:55;25.00;99.90
16674;DHT22;8450;52.654;10.326;2022-07-29T09:06:21;24.90;99.90
16674;DHT22;8450;52.654;10.326;2022-07-29T09:08:47;24.50;99.90
16674;DHT22;8450;52.654;10.326;2022-07-29T09:11:14;24.60;99.90
16674;DHT22;8450;52.654;10.326;2022-07-29T09:13:40;25.20;99.90
16674;DHT22;8450;52.654;10.326;2022-07-29T09:16:06;25.30;99.90
16674;DHT22;8450;52.654;10.326;2022-07-29T09:18:43;25.70;99.90
16674;DHT22;8450;52.654;10.326;2022-07-29T09:21:11;26.00;99.90
16674;DHT22;8450;52.654;10.326;2022-07-29T09:24:11;26.10;99.90
16674;DHT22;8450;52.654;10.326;2022-07-29T09:26:42;25.90;99.90
16674;DHT22;8450;52.654;10.326;2022-07-29T09:29:16;26.40;99.90
16674;DHT22;8450;52.654;10.326;2022-07-29T09:31:44;26.40;99.90
16674;DHT22;8450;52.654;10.326;2022-07-29T09:34:11;26.00;99.90
16674;DHT22;8450;52.654;10.326;2022-07-29T09:36:39;26.20;99.90
16674;DHT22;8450;52.654;10.326;2022-07-29T09:39:05;26.70;99.90
16674;DHT22;8450;52.654;10.326;2022-07-29T09:41:50;26.70;99.90
16674;DHT22;8450;52.654;10.326;2022-07-29T09:44:18;26.30;99.60
16674;DHT22;8450;52.654;10.326;2022-07-29T09:46:58;26.10;99.90
16674;DHT22;8450;52.654;10.326;2022-07-29T09:49:24;26.50;99.90
16674;DHT22;8450;52.654;10.326;2022-07-29T09:52:03;26.40;99.80
16674;DHT22;8450;52.654;10.326;2022-07-29T09:54:29;26.80;99.90
16674;DHT22;8450;52.654;10.326;2022-07-29T09:56:59;27.00;99.90
16674;DHT22;8450;52.654;10.326;2022-07-29T09:59:25;26.50;98.70
16674;DHT22;8450;52.654;10.326;2022-07-29T10:01:52;26.40;98.40
16674;DHT22;8450;52.654;10.326;2022-07-29T10:04:18;26.40;99.30
16674;DHT22;8450;52.654;10.326;2022-07-29T10:07:00;26.70;99.30
16674;DHT22;8450;52.654;10.326;2022-07-29T10:09:26;26.20;98.20
16674;DHT22;8450;52.654;10.326;2022-07-29T10:12:11;26.00;98.50
16674;DHT22;8450;52.654;10.326;2022-07-29T10:14:40;26.00;99.20
16674;DHT22;8450;52.654;10.326;2022-07-29T10:17:07;26.00;98.40
16674;DHT22;8450;52.654;10.326;2022-07-29T10:19:34;25.80;98.20
16674;DHT22;8450;52.654;10.326;2022-07-29T10:22:03;25.60;98.40
16674;DHT22;8450;52.654;10.326;2022-07-29T10:24:30;25.80;98.40
16674;DHT22;8450;52.654;10.326;2022-07-29T10:26:58;26.10;99.20
16674;DHT22;8450;52.654;10.326;2022-07-29T10:29:25;26.20;98.10
16674;DHT22;8450;52.654;10.326;2022-07-29T10:35:59;26.20;97.80
16674;DHT22;8450;52.654;10.326;2022-07-29T10:38:21;26.80;98.40
16674;DHT22;8450;52.654;10.326;2022-07-29T10:41:11;28.00;97.20
16674;DHT22;8450;52.654;10.326;2022-07-29T10:44:16;28.70;96.50
16674;DHT22;8450;52.654;10.326;2022-07-29T10:46:42;28.40;95.00
16674;DHT22;8450;52.654;10.326;2022-07-29T10:49:18;29.00;94.90
16674;DHT22;8450;52.654;10.326;2022-07-29T10:51:50;29.40;95.70
16674;DHT22;8450;52.654;10.326;2022-07-29T10:54:17;29.60;94.70
16674;DHT22;8450;52.654;10.326;2022-07-29T10:56:43;28.60;95.00
16674;DHT22;8450;52.654;10.326;2022-07-29T11:01:50;28.50;95.50
16674;DHT22;8450;52.654;10.326;2022-07-29T11:04:25;28.50;95.70
16674;DHT22;8450;52.654;10.326;2022-07-29T11:09:30;28.40;94.70
16674;DHT22;8450;52.654;10.326;2022-07-29T11:11:56;28.10;94.20
16674;DHT22;8450;52.654;10.326;2022-07-29T11:14:58;27.90;95.00
16674;DHT22;8450;52.654;10.326;2022-07-29T11:17:24;27.60;94.50
16674;DHT22;8450;52.654;10.326;2022-07-29T11:19:50;27.70;94.90
16674;DHT22;8450;52.654;10.326;2022-07-29T11:22:36;27.40;94.30
16674;DHT22;8450;52.654;10.326;2022-07-29T11:25:18;27.90;95.00
16674;DHT22;8450;52.654;10.326;2022-07-29T11:27:44;28.30;95.40
16674;DHT22;8450;52.654;10.326;2022-07-29T11:30:10;28.30;94.80
16674;DHT22;8450;52.654;10.326;2022-07-29T11:32:42;28.60;94.60
16674;DHT22;8450;52.654;10.326;2022-07-29T11:37:46;29.10;94.10
16674;DHT22;8450;52.654;10.326;2022-07-29T11:40:13;29.60;95.30
16674;DHT22;8450;52.654;10.326;2022-07-29T11:42:42;29.50;93.60
16674;DHT22;8450;52.654;10.326;2022-07-29T11:45:10;29.10;92.70
16674;DHT22;8450;52.654;10.326;2022-07-29T11:47:38;28.60;92.90
16674;DHT22;8450;52.654;10.326;2022-07-29T11:50:12;28.40;94.30
16674;DHT22;8450;52.654;10.326;2022-07-29T11:52:43;28.50;93.10
16674;DHT22;8450;52.654;10.326;2022-07-29T11:55:13;28.40;93.80
16674;DHT22;8450;52.654;10.326;2022-07-29T11:58:00;28.80;94.00
16674;DHT22;8450;52.654;10.326;2022-07-29T12:00:34;29.10;93.70
16674;DHT22;8450;52.654;10.326;2022-07-29T12:03:03;29.10;94.30
16674;DHT22;8450;52.654;10.326;2022-07-29T12:10:32;28.90;93.40
16674;DHT22;8450;52.654;10.326;2022-07-29T12:12:57;29.40;94.50
16674;DHT22;8450;52.654;10.326;2022-07-29T12:15:23;29.70;93.90
16674;DHT22;8450;52.654;10.326;2022-07-29T12:17:50;29.30;93.00
16674;DHT22;8450;52.654;10.326;2022-07-29T12:20:28;29.20;93.50
16674;DHT22;8450;52.654;10.326;2022-07-29T12:22:54;28.90;92.90
16674;DHT22;8450;52.654;10.326;2022-07-29T12:25:24;28.90;93.40
16674;DHT22;8450;52.654;10.326;2022-07-29T12:28:00;29.10;93.70
16674;DHT22;8450;52.654;10.326;2022-07-29T12:30:35;28.90;92.70
16674;DHT22;8450;52.654;10.326;2022-07-29T12:33:17;28.90;92.40
16674;DHT22;8450;52.654;10.326;2022-07-29T12:35:45;28.90;93.20
16674;DHT22;8450;52.654;10.326;2022-07-29T12:38:12;28.80;93.30
16674;DHT22;8450;52.654;10.326;2022-07-29T12:40:38;29.00;93.00
16674;DHT22;8450;52.654;10.326;2022-07-29T12:43:15;28.60;92.60
16674;DHT22;8450;52.654;10.326;2022-07-29T12:45:44;28.30;92.50
16674;DHT22;8450;52.654;10.326;2022-07-29T12:48:10;28.40;93.10
16674;DHT22;8450;52.654;10.326;2022-07-29T12:50:57;28.70;93.60
16674;DHT22;8450;52.654;10.326;2022-07-29T12:53:24;28.90;93.40
16674;DHT22;8450;52.654;10.326;2022-07-29T12:55:51;29.00;93.40
16674;DHT22;8450;52.654;10.326;2022-07-29T13:03:26;29.10;92.60
16674;DHT22;8450;52.654;10.326;2022-07-29T13:05:51;28.80;92.40
16674;DHT22;8450;52.654;10.326;2022-07-29T13:08:18;28.70;92.20
16674;DHT22;8450;52.654;10.326;2022-07-29T13:10:45;28.60;92.30
16674;DHT22;8450;52.654;10.326;2022-07-29T13:13:13;28.90;93.50
16674;DHT22;8450;52.654;10.326;2022-07-29T13:15:42;29.10;93.20
16674;DHT22;8450;52.654;10.326;2022-07-29T13:18:27;29.20;92.10
16674;DHT22;8450;52.654;10.326;2022-07-29T13:20:53;29.20;92.50
16674;DHT22;8450;52.654;10.326;2022-07-29T13:23:19;29.10;92.50
16674;DHT22;8450;52.654;10.326;2022-07-29T13:25:44;29.10;92.40
16674;DHT22;8450;52.654;10.326;2022-07-29T13:28:10;29.20;91.50
16674;DHT22;8450;52.654;10.326;2022-07-29T13:30:37;28.90;90.90
16674;DHT22;8450;52.654;10.326;2022-07-29T13:33:03;28.90;92.10
16674;DHT22;8450;52.654;10.326;2022-07-29T13:35:28;28.70;90.40
16674;DHT22;8450;52.654;10.326;2022-07-29T13:37:55;28.50;91.50
16674;DHT22;8450;52.654;10.326;2022-07-29T13:40:20;28.70;91.30
16674;DHT22;8450;52.654;10.326;2022-07-29T13:42:46;28.80;91.60
16674;DHT22;8450;52.654;10.326;2022-07-29T13:45:12;29.00;91.60
16674;DHT22;8450;52.654;10.326;2022-07-29T13:47:38;28.90;91.70
16674;DHT22;8450;52.654;10.326;2022-07-29T13:50:04;29.10;91.30
16674;DHT22;8450;52.654;10.326;2022-07-29T13:52:30;28.90;90.60
16674;DHT22;8450;52.654;10.326;2022-07-29T13:54:56;28.80;90.30
16674;DHT22;8450;52.654;10.326;2022-07-29T13:57:22;28.80;91.00
16674;DHT22;8450;52.654;10.326;2022-07-29T13:59:47;28.90;90.10
16674;DHT22;8450;52.654;10.326;2022-07-29T14:02:13;29.60;92.60
16674;DHT22;8450;52.654;10.326;2022-07-29T14:04:39;31.30;90.90
16674;DHT22;8450;52.654;10.326;2022-07-29T14:07:05;32.00;90.60
16674;DHT22;8450;52.654;10.326;2022-07-29T14:09:31;32.60;88.10
16674;DHT22;8450;52.654;10.326;2022-07-29T14:11:56;32.50;86.50
16674;DHT22;8450;52.654;10.326;2022-07-29T14:14:22;32.30;86.80
16674;DHT22;8450;52.654;10.326;2022-07-29T14:16:48;32.10;87.40
16674;DHT22;8450;52.654;10.326;2022-07-29T14:19:13;33.00;88.30
16674;DHT22;8450;52.654;10.326;2022-07-29T14:21:40;32.70;82.80
16674;DHT22;8450;52.654;10.326;2022-07-29T14:24:06;32.30;84.20
16674;DHT22;8450;52.654;10.326;2022-07-29T14:26:32;31.80;84.60
16674;DHT22;8450;52.654;10.326;2022-07-29T14:28:57;32.00;86.10
16674;DHT22;8450;52.654;10.326;2022-07-29T14:31:23;31.30;83.30
16674;DHT22;8450;52.654;10.326;2022-07-29T14:33:48;31.30;86.00
16674;DHT22;8450;52.654;10.326;2022-07-29T14:36:14;31.10;81.80
16674;DHT22;8450;52.654;10.326;2022-07-29T14:38:40;30.70;83.90
16674;DHT22;8450;52.654;10.326;2022-07-29T14:41:06;30.30;83.50
16674;DHT22;8450;52.654;10.326;2022-07-29T14:43:33;30.60;85.90
16674;DHT22;8450;52.654;10.326;2022-07-29T14:46:00;30.50;84.10
16674;DHT22;8450;52.654;10.326;2022-07-29T14:48:26;30.40;83.80
16674;DHT22;8450;52.654;10.326;2022-07-29T14:50:51;30.00;83.80
16674;DHT22;8450;52.654;10.326;2022-07-29T14:53:17;29.70;86.00
16674;DHT22;8450;52.654;10.326;2022-07-29T14:55:42;30.00;86.00
16674;DHT22;8450;52.654;10.326;2022-07-29T14:58:08;30.00;84.70
16674;DHT22;8450;52.654;10.326;2022-07-29T15:00:34;30.20;86.90
16674;DHT22;8450;52.654;10.326;2022-07-29T15:03:02;30.00;85.80
16674;DHT22;8450;52.654;10.326;2022-07-29T15:05:29;29.80;85.20
16674;DHT22;8450;52.654;10.326;2022-07-29T15:07:55;29.70;85.70
16674;DHT22;8450;52.654;10.326;2022-07-29T15:10:21;29.60;87.70
16674;DHT22;8450;52.654;10.326;2022-07-29T15:12:46;29.40;85.40
16674;DHT22;8450;52.654;10.326;2022-07-29T15:15:12;29.20;86.00
16674;DHT22;8450;52.654;10.326;2022-07-29T15:17:37;29.20;85.90
16674;DHT22;8450;52.654;10.326;2022-07-29T15:20:03;29.20;86.70
16674;DHT22;8450;52.654;10.326;2022-07-29T15:22:29;29.20;85.20
16674;DHT22;8450;52.654;10.326;2022-07-29T15:24:54;29.10;85.50
16674;DHT22;8450;52.654;10.326;2022-07-29T15:27:20;29.10;87.50
16674;DHT22;8450;52.654;10.326;2022-07-29T15:29:45;28.90;87.40
16674;DHT22;8450;52.654;10.326;2022-07-29T15:32:11;28.90;85.50
16674;DHT22;8450;52.654;10.326;2022-07-29T15:34:37;28.70;85.90
16674;DHT22;8450;52.654;10.326;2022-07-29T15:37:04;28.60;85.10
16674;DHT22;8450;52.654;10.326;2022-07-29T15:39:30;28.70;86.80
16674;DHT22;8450;52.654;10.326;2022-07-29T15:41:55;28.70;87.40
16674;DHT22;8450;52.654;10.326;2022-07-29T15:44:21;28.80;87.60
16674;DHT22;8450;52.654;10.326;2022-07-29T15:46:48;28.80;86.90
16674;DHT22;8450;52.654;10.326;2022-07-29T15:49:34;28.70;86.60
16674;DHT22;8450;52.654;10.326;2022-07-29T15:52:02;28.70;86.10
16674;DHT22;8450;52.654;10.326;2022-07-29T15:54:29;29.00;87.80
16674;DHT22;8450;52.654;10.326;2022-07-29T15:56:55;29.20;87.40
16674;DHT22;8450;52.654;10.326;2022-07-29T15:59:21;29.20;87.80
16674;DHT22;8450;52.654;10.326;2022-07-29T16:01:47;29.10;87.10
16674;DHT22;8450;52.654;10.326;2022-07-29T16:04:13;29.00;85.40
16674;DHT22;8450;52.654;10.326;2022-07-29T16:06:39;29.00;86.10
16674;DHT22;8450;52.654;10.326;2022-07-29T16:09:05;29.10;85.90
16674;DHT22;8450;52.654;10.326;2022-07-29T16:11:30;29.10;86.20
16674;DHT22;8450;52.654;10.326;2022-07-29T16:13:56;29.00;84.70
16674;DHT22;8450;52.654;10.326;2022-07-29T16:16:22;29.00;85.80
16674;DHT22;8450;52.654;10.326;2022-07-29T16:18:48;29.00;86.50
16674;DHT22;8450;52.654;10.326;2022-07-29T16:21:13;28.90;87.10
16674;DHT22;8450;52.654;10.326;2022-07-29T16:23:39;29.00;88.00
16674;DHT22;8450;52.654;10.326;2022-07-29T16:26:05;29.20;88.60
16674;DHT22;8450;52.654;10.326;2022-07-29T16:28:30;29.70;89.40
16674;DHT22;8450;52.654;10.326;2022-07-29T16:30:56;30.00;87.10
16674;DHT22;8450;52.654;10.326;2022-07-29T16:33:22;30.00;87.10
16674;DHT22;8450;52.654;10.326;2022-07-29T16:35:49;29.70;86.30
16674;DHT22;8450;52.654;10.326;2022-07-29T16:38:14;29.60;86.80
16674;DHT22;8450;52.654;10.326;2022-07-29T16:40:40;29.30;86.30
16674;DHT22;8450;52.654;10.326;2022-07-29T16:43:06;29.30;86.00
16674;DHT22;8450;52.654;10.326;2022-07-29T16:45:32;29.50;88.70
16674;DHT22;8450;52.654;10.326;2022-07-29T16:47:58;29.50;88.00
16674;DHT22;8450;52.654;10.326;2022-07-29T16:50:23;29.20;84.70
16674;DHT22;8450;52.654;10.326;2022-07-29T16:52:50;29.00;86.00
16674;DHT22;8450;52.654;10.326;2022-07-29T16:55:15;28.80;85.00
16674;DHT22;8450;52.654;10.326;2022-07-29T16:57:41;28.80;85.30
16674;DHT22;8450;52.654;10.326;2022-07-29T17:00:08;29.00;85.60
16674;DHT22;8450;52.654;10.326;2022-07-29T17:02:34;29.40;85.20
16674;DHT22;8450;52.654;10.326;2022-07-29T17:05:00;29.70;86.50
16674;DHT22;8450;52.654;10.326;2022-07-29T17:07:25;30.50;84.70
16674;DHT22;8450;52.654;10.326;2022-07-29T17:09:51;30.70;82.40
16674;DHT22;8450;52.654;10.326;2022-07-29T17:12:16;30.60;83.00
16674;DHT22;8450;52.654;10.326;2022-07-29T17:14:42;30.00;82.80
16674;DHT22;8450;52.654;10.326;2022-07-29T17:17:07;29.70;84.00
16674;DHT22;8450;52.654;10.326;2022-07-29T17:19:34;29.60;83.60
16674;DHT22;8450;52.654;10.326;2022-07-29T17:22:01;29.50;85.50
16674;DHT22;8450;52.654;10.326;2022-07-29T17:24:27;29.30;83.80
16674;DHT22;8450;52.654;10.326;2022-07-29T17:26:53;29.20;84.00
16674;DHT22;8450;52.654;10.326;2022-07-29T17:29:18;29.10;85.70
16674;DHT22;8450;52.654;10.326;2022-07-29T17:31:44;30.10;88.00
16674;DHT22;8450;52.654;10.326;2022-07-29T17:34:09;31.60;82.70
16674;DHT22;8450;52.654;10.326;2022-07-29T17:36:35;32.30;82.60
16674;DHT22;8450;52.654;10.326;2022-07-29T17:39:05;33.40;83.10
16674;DHT22;8450;52.654;10.326;2022-07-29T17:41:31;34.00;79.60
16674;DHT22;8450;52.654;10.326;2022-07-29T17:43:57;34.70;79.50
16674;DHT22;8450;52.654;10.326;2022-07-29T17:46:23;35.10;78.30
16674;DHT22;8450;52.654;10.326;2022-07-29T17:48:54;35.10;76.10
16674;DHT22;8450;52.654;10.326;2022-07-29T17:51:21;34.60;75.50
16674;DHT22;8450;52.654;10.326;2022-07-29T17:53:48;32.90;76.90
16674;DHT22;8450;52.654;10.326;2022-07-29T17:56:13;31.40;78.90
16674;DHT22;8450;52.654;10.326;2022-07-29T17:58:39;30.40;80.60
16674;DHT22;8450;52.654;10.326;2022-07-29T18:01:05;29.50;81.90
16674;DHT22;8450;52.654;10.326;2022-07-29T18:03:31;29.10;82.70
16674;DHT22;8450;52.654;10.326;2022-07-29T18:05:56;28.60;83.60
16674;DHT22;8450;52.654;10.326;2022-07-29T18:08:22;28.20;84.50
16674;DHT22;8450;52.654;10.326;2022-07-29T18:10:48;27.90;85.30
16674;DHT22;8450;52.654;10.326;2022-07-29T18:13:13;27.60;85.70
16674;DHT22;8450;52.654;10.326;2022-07-29T18:15:41;27.20;87.10
16674;DHT22;8450;52.654;10.326;2022-07-29T18:18:07;27.00;87.20
16674;DHT22;8450;52.654;10.326;2022-07-29T18:20:33;26.80;87.90
16674;DHT22;8450;52.654;10.326;2022-07-29T18:22:59;26.60;89.20
16674;DHT22;8450;52.654;10.326;2022-07-29T18:25:25;26.30;90.40
16674;DHT22;8450;52.654;10.326;2022-07-29T18:27:51;26.20;91.30
16674;DHT22;8450;52.654;10.326;2022-07-29T18:30:17;25.90;91.10
16674;DHT22;8450;52.654;10.326;2022-07-29T18:32:43;25.70;91.20
16674;DHT22;8450;52.654;10.326;2022-07-29T18:35:09;25.50;91.40
16674;DHT22;8450;52.654;10.326;2022-07-29T18:37:34;25.30;92.20
16674;DHT22;8450;52.654;10.326;2022-07-29T18:40:02;25.10;92.40
16674;DHT22;8450;52.654;10.326;2022-07-29T18:42:28;25.00;93.20
16674;DHT22;8450;52.654;10.326;2022-07-29T18:44:53;24.80;93.20
16674;DHT22;8450;52.654;10.326;2022-07-29T18:47:19;24.60;93.00
16674;DHT22;8450;52.654;10.326;2022-07-29T18:49:45;24.50;93.20
16674;DHT22;8450;52.654;10.326;2022-07-29T18:52:10;24.40;93.20
16674;DHT22;8450;52.654;10.326;2022-07-29T18:54:36;24.20;93.50
16674;DHT22;8450;52.654;10.326;2022-07-29T18:57:02;24.10;94.40
16674;DHT22;8450;52.654;10.326;2022-07-29T18:59:27;23.90;94.90
16674;DHT22;8450;52.654;10.326;2022-07-29T19:01:55;23.70;94.70
16674;DHT22;8450;52.654;10.326;2022-07-29T19:04:20;23.60;94.60
16674;DHT22;8450;52.654;10.326;2022-07-29T19:06:46;23.50;94.60
